sensor_id;sensor_type;location;lat;lon;timestamp;P1;durP1;ratioP1;P2;durP2;ratioP2
75793;SDS011;64418;47.536;19.074;2023-09-19T00:01:51;12.07;;;4.43;;
75793;SDS011;64418;47.536;19.074;2023-09-19T00:04:19;11.73;;;4.75;;
75793;SDS011;64418;47.536;19.074;2023-09-19T00:06:45;7.90;;;4.40;;
75793;SDS011;64418;47.536;19.074;2023-09-19T00:09:11;7.10;;;4.18;;
75793;SDS011;64418;47.536;19.074;2023-09-19T00:11:37;8.20;;;4.53;;
75793;SDS011;64418;47.536;19.074;2023-09-19T00:14:03;11.00;;;3.93;;
75793;SDS011;64418;47.536;19.074;2023-09-19T00:16:29;6.85;;;4.15;;
75793;SDS011;64418;47.536;19.074;2023-09-19T00:18:55;6.40;;;4.62;;
75793;SDS011;64418;47.536;19.074;2023-09-19T00:21:23;11.73;;;4.40;;
75793;SDS011;64418;47.536;19.074;2023-09-19T00:23:48;6.65;;;4.30;;
75793;SDS011;64418;47.536;19.074;2023-09-19T00:26:14;12.17;;;4.60;;
75793;SDS011;64418;47.536;19.074;2023-09-19T00:28:40;11.88;;;4.32;;
75793;SDS011;64418;47.536;19.074;2023-09-19T00:31:07;9.25;;;4.32;;
75793;SDS011;64418;47.536;19.074;2023-09-19T00:33:34;7.60;;;4.18;;
75793;SDS011;64418;47.536;19.074;2023-09-19T00:36:00;9.20;;;4.50;;
75793;SDS011;64418;47.536;19.074;2023-09-19T00:38:28;11.43;;;5.05;;
75793;SDS011;64418;47.536;19.074;2023-09-19T00:40:54;9.85;;;4.65;;
75793;SDS011;64418;47.536;19.074;2023-09-19T00:43:21;8.80;;;4.68;;
75793;SDS011;64418;47.536;19.074;2023-09-19T00:45:48;8.43;;;4.60;;
75793;SDS011;64418;47.536;19.074;2023-09-19T00:48:15;9.57;;;4.83;;
75793;SDS011;64418;47.536;19.074;2023-09-19T00:50:41;7.68;;;4.20;;
75793;SDS011;64418;47.536;19.074;2023-09-19T00:53:08;9.70;;;4.80;;
75793;SDS011;64418;47.536;19.074;2023-09-19T00:55:36;8.75;;;4.50;;
75793;SDS011;64418;47.536;19.074;2023-09-19T00:58:03;10.52;;;5.20;;
75793;SDS011;64418;47.536;19.074;2023-09-19T01:00:30;8.23;;;4.83;;
75793;SDS011;64418;47.536;19.074;2023-09-19T01:02:57;11.30;;;5.22;;
75793;SDS011;64418;47.536;19.074;2023-09-19T01:05:23;12.48;;;5.35;;
75793;SDS011;64418;47.536;19.074;2023-09-19T01:07:50;8.38;;;4.72;;
75793;SDS011;64418;47.536;19.074;2023-09-19T01:10:17;12.35;;;5.07;;
75793;SDS011;64418;47.536;19.074;2023-09-19T01:12:47;14.23;;;5.20;;
75793;SDS011;64418;47.536;19.074;2023-09-19T01:15:21;9.27;;;5.12;;
75793;SDS011;64418;47.536;19.074;2023-09-19T01:17:58;8.88;;;4.72;;
75793;SDS011;64418;47.536;19.074;2023-09-19T01:20:33;7.37;;;5.03;;
75793;SDS011;64418;47.536;19.074;2023-09-19T01:23:10;6.25;;;4.72;;
75793;SDS011;64418;47.536;19.074;2023-09-19T01:28:34;11.50;;;5.20;;
75793;SDS011;64418;47.536;19.074;2023-09-19T01:31:11;7.10;;;5.15;;
75793;SDS011;64418;47.536;19.074;2023-09-19T01:36:23;9.95;;;5.35;;
75793;SDS011;64418;47.536;19.074;2023-09-19T01:38:49;12.30;;;5.13;;
75793;SDS011;64418;47.536;19.074;2023-09-19T01:41:16;8.57;;;5.20;;
75793;SDS011;64418;47.536;19.074;2023-09-19T01:43:51;7.85;;;5.37;;
75793;SDS011;64418;47.536;19.074;2023-09-19T01:46:21;7.62;;;5.10;;
75793;SDS011;64418;47.536;19.074;2023-09-19T01:48:54;8.18;;;5.03;;
75793;SDS011;64418;47.536;19.074;2023-09-19T01:51:30;9.30;;;5.90;;
75793;SDS011;64418;47.536;19.074;2023-09-19T01:54:00;10.00;;;5.35;;
75793;SDS011;64418;47.536;19.074;2023-09-19T01:56:30;11.15;;;5.90;;
75793;SDS011;64418;47.536;19.074;2023-09-19T01:58:59;7.70;;;5.18;;
75793;SDS011;64418;47.536;19.074;2023-09-19T02:01:33;11.05;;;5.57;;
75793;SDS011;64418;47.536;19.074;2023-09-19T02:04:00;13.57;;;6.10;;
75793;SDS011;64418;47.536;19.074;2023-09-19T02:06:26;11.38;;;5.35;;
75793;SDS011;64418;47.536;19.074;2023-09-19T02:08:52;13.82;;;5.70;;
75793;SDS011;64418;47.536;19.074;2023-09-19T02:11:19;13.98;;;5.60;;
75793;SDS011;64418;47.536;19.074;2023-09-19T02:13:45;8.40;;;5.80;;
75793;SDS011;64418;47.536;19.074;2023-09-19T02:16:12;10.93;;;5.60;;
75793;SDS011;64418;47.536;19.074;2023-09-19T02:18:39;10.07;;;5.80;;
75793;SDS011;64418;47.536;19.074;2023-09-19T02:21:05;10.90;;;5.40;;
75793;SDS011;64418;47.536;19.074;2023-09-19T02:23:31;11.45;;;5.68;;
75793;SDS011;64418;47.536;19.074;2023-09-19T02:25:58;11.73;;;6.32;;
75793;SDS011;64418;47.536;19.074;2023-09-19T02:28:24;8.80;;;5.53;;
75793;SDS011;64418;47.536;19.074;2023-09-19T02:30:50;8.65;;;5.55;;
75793;SDS011;64418;47.536;19.074;2023-09-19T02:33:16;9.00;;;5.72;;
75793;SDS011;64418;47.536;19.074;2023-09-19T02:35:43;14.20;;;6.35;;
75793;SDS011;64418;47.536;19.074;2023-09-19T02:38:10;11.23;;;5.85;;
75793;SDS011;64418;47.536;19.074;2023-09-19T02:40:35;12.37;;;6.50;;
75793;SDS011;64418;47.536;19.074;2023-09-19T02:43:03;8.43;;;6.40;;
75793;SDS011;64418;47.536;19.074;2023-09-19T02:45:29;10.82;;;6.10;;
75793;SDS011;64418;47.536;19.074;2023-09-19T02:47:55;12.00;;;6.30;;
75793;SDS011;64418;47.536;19.074;2023-09-19T02:50:21;12.67;;;6.70;;
75793;SDS011;64418;47.536;19.074;2023-09-19T02:52:48;11.35;;;6.25;;
75793;SDS011;64418;47.536;19.074;2023-09-19T02:55:14;11.38;;;6.70;;
75793;SDS011;64418;47.536;19.074;2023-09-19T02:57:42;10.20;;;6.30;;
75793;SDS011;64418;47.536;19.074;2023-09-19T03:00:11;11.02;;;6.55;;
75793;SDS011;64418;47.536;19.074;2023-09-19T03:02:38;10.02;;;6.32;;
75793;SDS011;64418;47.536;19.074;2023-09-19T03:05:05;10.48;;;6.62;;
75793;SDS011;64418;47.536;19.074;2023-09-19T03:07:32;9.38;;;6.57;;
75793;SDS011;64418;47.536;19.074;2023-09-19T03:10:00;9.70;;;5.90;;
75793;SDS011;64418;47.536;19.074;2023-09-19T03:12:26;8.35;;;6.15;;
75793;SDS011;64418;47.536;19.074;2023-09-19T03:14:52;13.40;;;6.55;;
75793;SDS011;64418;47.536;19.074;2023-09-19T03:17:18;10.57;;;6.78;;
75793;SDS011;64418;47.536;19.074;2023-09-19T03:19:44;7.93;;;6.28;;
75793;SDS011;64418;47.536;19.074;2023-09-19T03:22:10;12.77;;;6.30;;
75793;SDS011;64418;47.536;19.074;2023-09-19T03:24:37;12.45;;;6.87;;
75793;SDS011;64418;47.536;19.074;2023-09-19T03:27:05;11.18;;;6.72;;
75793;SDS011;64418;47.536;19.074;2023-09-19T03:29:34;12.68;;;6.85;;
75793;SDS011;64418;47.536;19.074;2023-09-19T03:32:00;11.07;;;6.60;;
75793;SDS011;64418;47.536;19.074;2023-09-19T03:34:25;15.47;;;6.73;;
75793;SDS011;64418;47.536;19.074;2023-09-19T03:36:51;15.32;;;7.00;;
75793;SDS011;64418;47.536;19.074;2023-09-19T03:39:17;9.40;;;6.53;;
75793;SDS011;64418;47.536;19.074;2023-09-19T03:41:43;12.67;;;6.90;;
75793;SDS011;64418;47.536;19.074;2023-09-19T03:44:11;12.07;;;6.72;;
75793;SDS011;64418;47.536;19.074;2023-09-19T03:46:37;11.80;;;6.62;;
75793;SDS011;64418;47.536;19.074;2023-09-19T03:49:03;11.80;;;6.50;;
75793;SDS011;64418;47.536;19.074;2023-09-19T03:51:28;12.13;;;7.40;;
75793;SDS011;64418;47.536;19.074;2023-09-19T03:53:54;10.85;;;6.68;;
75793;SDS011;64418;47.536;19.074;2023-09-19T03:56:20;12.85;;;6.72;;
75793;SDS011;64418;47.536;19.074;2023-09-19T03:58:47;14.73;;;6.83;;
75793;SDS011;64418;47.536;19.074;2023-09-19T04:01:14;11.20;;;7.00;;
75793;SDS011;64418;47.536;19.074;2023-09-19T04:03:41;11.05;;;6.50;;
75793;SDS011;64418;47.536;19.074;2023-09-19T04:06:06;11.32;;;6.87;;
75793;SDS011;64418;47.536;19.074;2023-09-19T04:08:33;11.27;;;6.68;;
75793;SDS011;64418;47.536;19.074;2023-09-19T04:10:59;8.60;;;5.80;;
75793;SDS011;64418;47.536;19.074;2023-09-19T04:13:26;12.55;;;6.68;;
75793;SDS011;64418;47.536;19.074;2023-09-19T04:15:52;11.07;;;6.60;;
75793;SDS011;64418;47.536;19.074;2023-09-19T04:18:19;13.40;;;6.40;;
75793;SDS011;64418;47.536;19.074;2023-09-19T04:20:47;9.80;;;5.93;;
75793;SDS011;64418;47.536;19.074;2023-09-19T04:23:14;10.90;;;5.83;;
75793;SDS011;64418;47.536;19.074;2023-09-19T04:25:40;10.98;;;5.10;;
75793;SDS011;64418;47.536;19.074;2023-09-19T04:28:07;10.20;;;4.78;;
75793;SDS011;64418;47.536;19.074;2023-09-19T04:30:33;10.20;;;4.45;;
75793;SDS011;64418;47.536;19.074;2023-09-19T04:32:59;11.05;;;4.90;;
75793;SDS011;64418;47.536;19.074;2023-09-19T04:35:27;10.40;;;3.80;;
75793;SDS011;64418;47.536;19.074;2023-09-19T04:37:53;10.43;;;4.50;;
75793;SDS011;64418;47.536;19.074;2023-09-19T04:40:19;8.05;;;4.00;;
75793;SDS011;64418;47.536;19.074;2023-09-19T04:42:46;9.75;;;3.97;;
75793;SDS011;64418;47.536;19.074;2023-09-19T04:45:19;6.60;;;3.28;;
75793;SDS011;64418;47.536;19.074;2023-09-19T04:47:46;10.03;;;3.27;;
75793;SDS011;64418;47.536;19.074;2023-09-19T04:50:11;6.30;;;3.65;;
75793;SDS011;64418;47.536;19.074;2023-09-19T04:52:40;5.07;;;3.10;;
75793;SDS011;64418;47.536;19.074;2023-09-19T04:55:06;3.67;;;2.42;;
75793;SDS011;64418;47.536;19.074;2023-09-19T04:57:34;5.47;;;2.25;;
75793;SDS011;64418;47.536;19.074;2023-09-19T05:00:00;6.93;;;2.10;;
75793;SDS011;64418;47.536;19.074;2023-09-19T05:02:26;3.60;;;1.65;;
75793;SDS011;64418;47.536;19.074;2023-09-19T05:04:55;4.45;;;1.45;;
75793;SDS011;64418;47.536;19.074;2023-09-19T05:07:21;7.55;;;1.58;;
75793;SDS011;64418;47.536;19.074;2023-09-19T05:09:49;4.53;;;1.30;;
75793;SDS011;64418;47.536;19.074;2023-09-19T05:12:15;6.20;;;1.45;;
75793;SDS011;64418;47.536;19.074;2023-09-19T05:14:41;1.92;;;1.00;;
75793;SDS011;64418;47.536;19.074;2023-09-19T05:17:07;2.78;;;1.08;;
75793;SDS011;64418;47.536;19.074;2023-09-19T05:19:58;3.43;;;1.10;;
75793;SDS011;64418;47.536;19.074;2023-09-19T05:22:26;3.03;;;1.00;;
75793;SDS011;64418;47.536;19.074;2023-09-19T05:24:53;2.28;;;0.80;;
75793;SDS011;64418;47.536;19.074;2023-09-19T05:27:19;2.35;;;0.90;;
75793;SDS011;64418;47.536;19.074;2023-09-19T05:29:45;3.23;;;1.53;;
75793;SDS011;64418;47.536;19.074;2023-09-19T05:32:11;2.58;;;1.23;;
75793;SDS011;64418;47.536;19.074;2023-09-19T05:34:38;5.55;;;0.90;;
75793;SDS011;64418;47.536;19.074;2023-09-19T05:37:04;2.85;;;0.80;;
75793;SDS011;64418;47.536;19.074;2023-09-19T05:39:30;1.95;;;0.80;;
75793;SDS011;64418;47.536;19.074;2023-09-19T05:41:58;2.23;;;0.80;;
75793;SDS011;64418;47.536;19.074;2023-09-19T05:44:24;4.65;;;0.93;;
75793;SDS011;64418;47.536;19.074;2023-09-19T05:46:51;1.90;;;0.50;;
75793;SDS011;64418;47.536;19.074;2023-09-19T05:49:17;3.77;;;0.70;;
75793;SDS011;64418;47.536;19.074;2023-09-19T05:51:43;1.40;;;0.68;;
75793;SDS011;64418;47.536;19.074;2023-09-19T05:54:09;1.60;;;0.68;;
75793;SDS011;64418;47.536;19.074;2023-09-19T05:56:35;5.12;;;0.60;;
75793;SDS011;64418;47.536;19.074;2023-09-19T05:59:02;3.12;;;0.90;;
75793;SDS011;64418;47.536;19.074;2023-09-19T06:01:28;4.33;;;0.67;;
75793;SDS011;64418;47.536;19.074;2023-09-19T06:03:54;1.83;;;0.80;;
75793;SDS011;64418;47.536;19.074;2023-09-19T06:06:20;2.37;;;0.80;;
75793;SDS011;64418;47.536;19.074;2023-09-19T06:08:46;3.30;;;0.85;;
75793;SDS011;64418;47.536;19.074;2023-09-19T06:11:13;2.33;;;0.60;;
75793;SDS011;64418;47.536;19.074;2023-09-19T06:13:39;1.25;;;0.60;;
75793;SDS011;64418;47.536;19.074;2023-09-19T06:16:07;3.65;;;0.70;;
75793;SDS011;64418;47.536;19.074;2023-09-19T06:18:33;2.17;;;0.68;;
75793;SDS011;64418;47.536;19.074;2023-09-19T06:21:02;2.93;;;0.70;;
75793;SDS011;64418;47.536;19.074;2023-09-19T06:23:28;2.60;;;0.70;;
75793;SDS011;64418;47.536;19.074;2023-09-19T06:25:54;1.87;;;0.90;;
75793;SDS011;64418;47.536;19.074;2023-09-19T06:28:21;3.10;;;0.80;;
75793;SDS011;64418;47.536;19.074;2023-09-19T06:30:46;2.53;;;0.80;;
75793;SDS011;64418;47.536;19.074;2023-09-19T06:33:14;1.70;;;0.62;;
75793;SDS011;64418;47.536;19.074;2023-09-19T06:35:40;2.00;;;0.73;;
75793;SDS011;64418;47.536;19.074;2023-09-19T06:38:06;2.15;;;0.70;;
75793;SDS011;64418;47.536;19.074;2023-09-19T06:40:33;3.67;;;0.90;;
75793;SDS011;64418;47.536;19.074;2023-09-19T06:42:59;1.20;;;0.60;;
75793;SDS011;64418;47.536;19.074;2023-09-19T06:45:25;4.93;;;0.70;;
75793;SDS011;64418;47.536;19.074;2023-09-19T06:47:51;1.95;;;0.52;;
75793;SDS011;64418;47.536;19.074;2023-09-19T06:50:18;1.05;;;0.60;;
75793;SDS011;64418;47.536;19.074;2023-09-19T06:52:45;1.20;;;0.50;;
75793;SDS011;64418;47.536;19.074;2023-09-19T06:55:11;1.08;;;0.57;;
75793;SDS011;64418;47.536;19.074;2023-09-19T06:57:37;0.93;;;0.60;;
75793;SDS011;64418;47.536;19.074;2023-09-19T07:00:03;0.95;;;0.47;;
75793;SDS011;64418;47.536;19.074;2023-09-19T07:02:30;1.77;;;0.90;;
75793;SDS011;64418;47.536;19.074;2023-09-19T07:04:56;1.07;;;0.57;;
75793;SDS011;64418;47.536;19.074;2023-09-19T07:07:23;2.30;;;0.80;;
75793;SDS011;64418;47.536;19.074;2023-09-19T07:09:49;1.15;;;0.40;;
75793;SDS011;64418;47.536;19.074;2023-09-19T07:12:15;1.33;;;0.50;;
75793;SDS011;64418;47.536;19.074;2023-09-19T07:14:40;2.65;;;0.70;;
75793;SDS011;64418;47.536;19.074;2023-09-19T07:17:06;0.62;;;0.50;;
75793;SDS011;64418;47.536;19.074;2023-09-19T07:19:35;0.90;;;0.60;;
75793;SDS011;64418;47.536;19.074;2023-09-19T07:22:03;2.27;;;0.80;;
75793;SDS011;64418;47.536;19.074;2023-09-19T07:24:31;1.08;;;0.50;;
75793;SDS011;64418;47.536;19.074;2023-09-19T07:26:57;1.33;;;0.60;;
75793;SDS011;64418;47.536;19.074;2023-09-19T07:29:23;1.30;;;0.65;;
75793;SDS011;64418;47.536;19.074;2023-09-19T07:31:49;3.70;;;0.60;;
75793;SDS011;64418;47.536;19.074;2023-09-19T07:34:17;2.37;;;0.70;;
75793;SDS011;64418;47.536;19.074;2023-09-19T07:36:43;1.98;;;0.75;;
75793;SDS011;64418;47.536;19.074;2023-09-19T07:39:09;1.13;;;0.63;;
75793;SDS011;64418;47.536;19.074;2023-09-19T07:41:36;1.48;;;0.65;;
75793;SDS011;64418;47.536;19.074;2023-09-19T07:44:03;2.55;;;0.80;;
75793;SDS011;64418;47.536;19.074;2023-09-19T07:46:29;1.15;;;0.70;;
75793;SDS011;64418;47.536;19.074;2023-09-19T07:48:55;2.27;;;0.77;;
75793;SDS011;64418;47.536;19.074;2023-09-19T07:51:21;1.33;;;0.60;;
75793;SDS011;64418;47.536;19.074;2023-09-19T07:53:47;2.95;;;0.90;;
75793;SDS011;64418;47.536;19.074;2023-09-19T07:56:13;1.70;;;0.82;;
75793;SDS011;64418;47.536;19.074;2023-09-19T07:58:41;1.47;;;0.57;;
75793;SDS011;64418;47.536;19.074;2023-09-19T08:01:09;3.08;;;0.88;;
75793;SDS011;64418;47.536;19.074;2023-09-19T08:03:36;1.70;;;0.75;;
75793;SDS011;64418;47.536;19.074;2023-09-19T08:06:02;3.00;;;0.90;;
75793;SDS011;64418;47.536;19.074;2023-09-19T08:08:28;2.97;;;0.90;;
75793;SDS011;64418;47.536;19.074;2023-09-19T08:10:54;1.50;;;0.90;;
75793;SDS011;64418;47.536;19.074;2023-09-19T08:13:20;1.50;;;0.88;;
75793;SDS011;64418;47.536;19.074;2023-09-19T08:15:47;2.92;;;1.00;;
75793;SDS011;64418;47.536;19.074;2023-09-19T08:18:13;2.45;;;1.08;;
75793;SDS011;64418;47.536;19.074;2023-09-19T08:20:39;5.40;;;1.40;;
75793;SDS011;64418;47.536;19.074;2023-09-19T08:23:05;2.22;;;0.80;;
75793;SDS011;64418;47.536;19.074;2023-09-19T08:25:31;3.50;;;0.80;;
75793;SDS011;64418;47.536;19.074;2023-09-19T08:27:57;5.03;;;1.00;;
75793;SDS011;64418;47.536;19.074;2023-09-19T08:30:23;1.83;;;0.90;;
75793;SDS011;64418;47.536;19.074;2023-09-19T08:32:51;2.35;;;0.77;;
75793;SDS011;64418;47.536;19.074;2023-09-19T08:35:16;2.30;;;0.90;;
75793;SDS011;64418;47.536;19.074;2023-09-19T08:37:42;3.87;;;0.80;;
75793;SDS011;64418;47.536;19.074;2023-09-19T08:40:08;2.22;;;0.80;;
75793;SDS011;64418;47.536;19.074;2023-09-19T08:42:48;0.70;;;0.47;;
75793;SDS011;64418;47.536;19.074;2023-09-19T08:45:14;2.97;;;0.95;;
75793;SDS011;64418;47.536;19.074;2023-09-19T08:47:41;3.90;;;0.80;;
75793;SDS011;64418;47.536;19.074;2023-09-19T08:50:14;2.08;;;1.02;;
75793;SDS011;64418;47.536;19.074;2023-09-19T08:52:44;2.15;;;0.82;;
75793;SDS011;64418;47.536;19.074;2023-09-19T08:55:13;2.17;;;0.88;;
75793;SDS011;64418;47.536;19.074;2023-09-19T08:57:44;2.33;;;0.88;;
75793;SDS011;64418;47.536;19.074;2023-09-19T09:00:11;2.00;;;0.73;;
75793;SDS011;64418;47.536;19.074;2023-09-19T09:02:38;3.45;;;0.80;;
75793;SDS011;64418;47.536;19.074;2023-09-19T09:05:04;4.25;;;0.70;;
75793;SDS011;64418;47.536;19.074;2023-09-19T09:07:32;4.10;;;1.00;;
75793;SDS011;64418;47.536;19.074;2023-09-19T09:09:58;3.70;;;1.00;;
75793;SDS011;64418;47.536;19.074;2023-09-19T09:12:28;2.40;;;0.80;;
75793;SDS011;64418;47.536;19.074;2023-09-19T09:14:55;2.95;;;0.90;;
75793;SDS011;64418;47.536;19.074;2023-09-19T09:17:21;1.80;;;0.85;;
75793;SDS011;64418;47.536;19.074;2023-09-19T09:19:47;3.15;;;1.00;;
75793;SDS011;64418;47.536;19.074;2023-09-19T09:22:13;2.80;;;0.90;;
75793;SDS011;64418;47.536;19.074;2023-09-19T09:24:52;2.90;;;0.88;;
75793;SDS011;64418;47.536;19.074;2023-09-19T09:27:18;2.95;;;0.80;;
75793;SDS011;64418;47.536;19.074;2023-09-19T09:29:45;2.53;;;1.00;;
75793;SDS011;64418;47.536;19.074;2023-09-19T09:32:16;4.30;;;0.90;;
75793;SDS011;64418;47.536;19.074;2023-09-19T09:34:46;6.73;;;1.03;;
75793;SDS011;64418;47.536;19.074;2023-09-19T09:37:14;3.03;;;0.80;;
75793;SDS011;64418;47.536;19.074;2023-09-19T09:39:40;3.78;;;1.05;;
75793;SDS011;64418;47.536;19.074;2023-09-19T09:42:16;1.50;;;0.88;;
75793;SDS011;64418;47.536;19.074;2023-09-19T09:44:59;3.05;;;0.90;;
75793;SDS011;64418;47.536;19.074;2023-09-19T09:47:41;2.07;;;0.80;;
75793;SDS011;64418;47.536;19.074;2023-09-19T09:50:08;2.08;;;0.82;;
75793;SDS011;64418;47.536;19.074;2023-09-19T09:52:44;2.00;;;0.90;;
75793;SDS011;64418;47.536;19.074;2023-09-19T09:55:11;3.17;;;1.27;;
75793;SDS011;64418;47.536;19.074;2023-09-19T09:57:39;1.93;;;0.80;;
75793;SDS011;64418;47.536;19.074;2023-09-19T10:00:05;2.00;;;0.90;;
75793;SDS011;64418;47.536;19.074;2023-09-19T10:02:35;2.37;;;1.02;;
75793;SDS011;64418;47.536;19.074;2023-09-19T10:05:03;2.03;;;0.90;;
75793;SDS011;64418;47.536;19.074;2023-09-19T10:07:37;1.80;;;0.90;;
75793;SDS011;64418;47.536;19.074;2023-09-19T10:10:04;2.13;;;0.80;;
75793;SDS011;64418;47.536;19.074;2023-09-19T10:12:31;3.70;;;0.80;;
75793;SDS011;64418;47.536;19.074;2023-09-19T10:14:59;2.62;;;0.95;;
75793;SDS011;64418;47.536;19.074;2023-09-19T10:17:27;1.75;;;0.88;;
75793;SDS011;64418;47.536;19.074;2023-09-19T10:19:55;1.90;;;0.88;;
75793;SDS011;64418;47.536;19.074;2023-09-19T10:22:22;2.87;;;1.10;;
75793;SDS011;64418;47.536;19.074;2023-09-19T10:24:48;2.08;;;0.90;;
75793;SDS011;64418;47.536;19.074;2023-09-19T10:27:15;3.17;;;1.12;;
75793;SDS011;64418;47.536;19.074;2023-09-19T10:29:42;2.35;;;1.10;;
75793;SDS011;64418;47.536;19.074;2023-09-19T10:32:11;2.25;;;1.02;;
75793;SDS011;64418;47.536;19.074;2023-09-19T10:34:44;2.13;;;1.10;;
75793;SDS011;64418;47.536;19.074;2023-09-19T10:37:16;3.10;;;1.52;;
75793;SDS011;64418;47.536;19.074;2023-09-19T10:39:46;1.90;;;1.10;;
75793;SDS011;64418;47.536;19.074;2023-09-19T10:42:14;1.77;;;0.93;;
75793;SDS011;64418;47.536;19.074;2023-09-19T10:44:45;3.62;;;1.50;;
75793;SDS011;64418;47.536;19.074;2023-09-19T10:47:13;2.33;;;1.20;;
75793;SDS011;64418;47.536;19.074;2023-09-19T10:49:43;3.10;;;1.30;;
75793;SDS011;64418;47.536;19.074;2023-09-19T10:52:09;3.22;;;1.10;;
75793;SDS011;64418;47.536;19.074;2023-09-19T10:54:35;2.25;;;1.10;;
75793;SDS011;64418;47.536;19.074;2023-09-19T10:57:01;3.22;;;1.37;;
75793;SDS011;64418;47.536;19.074;2023-09-19T10:59:28;2.07;;;1.07;;
75793;SDS011;64418;47.536;19.074;2023-09-19T11:01:55;1.62;;;0.90;;
75793;SDS011;64418;47.536;19.074;2023-09-19T11:04:24;2.37;;;1.00;;
75793;SDS011;64418;47.536;19.074;2023-09-19T11:07:02;3.70;;;0.90;;
75793;SDS011;64418;47.536;19.074;2023-09-19T11:12:10;3.77;;;1.33;;
75793;SDS011;64418;47.536;19.074;2023-09-19T11:14:41;4.22;;;1.15;;
75793;SDS011;64418;47.536;19.074;2023-09-19T11:20:21;2.15;;;1.10;;
75793;SDS011;64418;47.536;19.074;2023-09-19T11:25:54;1.77;;;1.00;;
75793;SDS011;64418;47.536;19.074;2023-09-19T11:28:35;1.83;;;1.02;;
75793;SDS011;64418;47.536;19.074;2023-09-19T11:37:01;2.63;;;0.80;;
75793;SDS011;64418;47.536;19.074;2023-09-19T11:39:27;2.05;;;0.90;;
75793;SDS011;64418;47.536;19.074;2023-09-19T11:41:55;2.90;;;0.93;;
75793;SDS011;64418;47.536;19.074;2023-09-19T11:44:31;2.17;;;0.70;;
75793;SDS011;64418;47.536;19.074;2023-09-19T11:46:59;1.77;;;0.80;;
75793;SDS011;64418;47.536;19.074;2023-09-19T11:49:33;2.93;;;1.17;;
75793;SDS011;64418;47.536;19.074;2023-09-19T11:52:02;1.45;;;0.60;;
75793;SDS011;64418;47.536;19.074;2023-09-19T11:54:29;1.55;;;0.90;;
75793;SDS011;64418;47.536;19.074;2023-09-19T11:56:55;2.10;;;0.88;;
75793;SDS011;64418;47.536;19.074;2023-09-19T11:59:21;1.30;;;0.70;;
75793;SDS011;64418;47.536;19.074;2023-09-19T12:01:51;3.10;;;0.97;;
75793;SDS011;64418;47.536;19.074;2023-09-19T12:04:18;1.30;;;0.80;;
75793;SDS011;64418;47.536;19.074;2023-09-19T12:06:58;1.67;;;0.82;;
75793;SDS011;64418;47.536;19.074;2023-09-19T12:09:25;0.97;;;0.63;;
75793;SDS011;64418;47.536;19.074;2023-09-19T12:11:51;3.63;;;0.97;;
75793;SDS011;64418;47.536;19.074;2023-09-19T12:14:24;3.75;;;1.10;;
75793;SDS011;64418;47.536;19.074;2023-09-19T12:16:54;2.67;;;1.50;;
75793;SDS011;64418;47.536;19.074;2023-09-19T12:19:21;4.90;;;1.20;;
75793;SDS011;64418;47.536;19.074;2023-09-19T12:21:54;2.03;;;1.00;;
75793;SDS011;64418;47.536;19.074;2023-09-19T12:24:20;5.47;;;1.33;;
75793;SDS011;64418;47.536;19.074;2023-09-19T12:26:47;9.20;;;2.47;;
75793;SDS011;64418;47.536;19.074;2023-09-19T12:29:13;2.47;;;1.27;;
75793;SDS011;64418;47.536;19.074;2023-09-19T12:31:48;1.95;;;1.17;;
75793;SDS011;64418;47.536;19.074;2023-09-19T12:34:19;2.93;;;1.20;;
75793;SDS011;64418;47.536;19.074;2023-09-19T12:36:46;3.55;;;1.17;;
75793;SDS011;64418;47.536;19.074;2023-09-19T12:39:22;2.00;;;0.98;;
75793;SDS011;64418;47.536;19.074;2023-09-19T12:41:50;2.28;;;1.10;;
75793;SDS011;64418;47.536;19.074;2023-09-19T12:44:17;1.67;;;1.08;;
75793;SDS011;64418;47.536;19.074;2023-09-19T12:46:43;2.07;;;1.00;;
75793;SDS011;64418;47.536;19.074;2023-09-19T12:49:16;5.43;;;1.55;;
75793;SDS011;64418;47.536;19.074;2023-09-19T12:51:43;2.28;;;1.00;;
75793;SDS011;64418;47.536;19.074;2023-09-19T12:54:10;1.50;;;1.10;;
75793;SDS011;64418;47.536;19.074;2023-09-19T12:56:39;2.63;;;1.27;;
75793;SDS011;64418;47.536;19.074;2023-09-19T12:59:08;4.55;;;1.40;;
75793;SDS011;64418;47.536;19.074;2023-09-19T13:01:33;4.68;;;1.42;;
75793;SDS011;64418;47.536;19.074;2023-09-19T13:04:13;3.97;;;1.10;;
75793;SDS011;64418;47.536;19.074;2023-09-19T13:06:40;3.12;;;1.05;;
75793;SDS011;64418;47.536;19.074;2023-09-19T13:09:09;2.80;;;1.20;;
75793;SDS011;64418;47.536;19.074;2023-09-19T13:11:37;5.00;;;1.00;;
75793;SDS011;64418;47.536;19.074;2023-09-19T13:14:16;6.50;;;1.37;;
75793;SDS011;64418;47.536;19.074;2023-09-19T13:16:54;6.62;;;1.33;;
75793;SDS011;64418;47.536;19.074;2023-09-19T13:19:39;1.92;;;1.20;;
75793;SDS011;64418;47.536;19.074;2023-09-19T13:25:05;2.47;;;1.20;;
75793;SDS011;64418;47.536;19.074;2023-09-19T13:27:33;2.45;;;1.25;;
75793;SDS011;64418;47.536;19.074;2023-09-19T13:30:01;2.67;;;1.20;;
75793;SDS011;64418;47.536;19.074;2023-09-19T13:32:27;4.43;;;1.30;;
75793;SDS011;64418;47.536;19.074;2023-09-19T13:34:53;1.70;;;1.00;;
75793;SDS011;64418;47.536;19.074;2023-09-19T13:37:19;2.60;;;1.30;;
75793;SDS011;64418;47.536;19.074;2023-09-19T13:39:45;1.30;;;1.10;;
75793;SDS011;64418;47.536;19.074;2023-09-19T13:42:11;4.17;;;1.50;;
75793;SDS011;64418;47.536;19.074;2023-09-19T13:44:38;3.72;;;1.52;;
75793;SDS011;64418;47.536;19.074;2023-09-19T13:47:06;6.05;;;1.70;;
75793;SDS011;64418;47.536;19.074;2023-09-19T13:49:31;2.83;;;1.23;;
75793;SDS011;64418;47.536;19.074;2023-09-19T13:51:57;5.00;;;1.50;;
75793;SDS011;64418;47.536;19.074;2023-09-19T13:54:23;4.03;;;1.43;;
75793;SDS011;64418;47.536;19.074;2023-09-19T13:56:50;3.95;;;1.70;;
75793;SDS011;64418;47.536;19.074;2023-09-19T13:59:16;2.87;;;1.42;;
75793;SDS011;64418;47.536;19.074;2023-09-19T14:01:42;3.40;;;1.10;;
75793;SDS011;64418;47.536;19.074;2023-09-19T14:04:09;3.47;;;1.20;;
75793;SDS011;64418;47.536;19.074;2023-09-19T14:06:35;2.35;;;1.33;;
75793;SDS011;64418;47.536;19.074;2023-09-19T14:09:01;2.25;;;1.33;;
75793;SDS011;64418;47.536;19.074;2023-09-19T14:11:27;6.35;;;1.40;;
75793;SDS011;64418;47.536;19.074;2023-09-19T14:13:53;2.10;;;1.20;;
75793;SDS011;64418;47.536;19.074;2023-09-19T14:16:19;4.12;;;1.20;;
75793;SDS011;64418;47.536;19.074;2023-09-19T14:18:45;7.00;;;1.30;;
75793;SDS011;64418;47.536;19.074;2023-09-19T14:21:12;4.33;;;1.50;;
75793;SDS011;64418;47.536;19.074;2023-09-19T14:23:38;2.42;;;1.20;;
75793;SDS011;64418;47.536;19.074;2023-09-19T14:26:05;4.47;;;1.20;;
75793;SDS011;64418;47.536;19.074;2023-09-19T14:28:31;5.28;;;1.20;;
75793;SDS011;64418;47.536;19.074;2023-09-19T14:30:57;3.40;;;1.30;;
75793;SDS011;64418;47.536;19.074;2023-09-19T14:33:22;2.07;;;1.30;;
75793;SDS011;64418;47.536;19.074;2023-09-19T14:35:49;3.08;;;1.02;;
75793;SDS011;64418;47.536;19.074;2023-09-19T14:38:16;2.53;;;1.50;;
75793;SDS011;64418;47.536;19.074;2023-09-19T14:40:42;5.37;;;1.63;;
75793;SDS011;64418;47.536;19.074;2023-09-19T14:43:08;2.95;;;1.30;;
75793;SDS011;64418;47.536;19.074;2023-09-19T14:45:35;2.35;;;1.42;;
75793;SDS011;64418;47.536;19.074;2023-09-19T14:48:01;2.35;;;1.48;;
75793;SDS011;64418;47.536;19.074;2023-09-19T14:50:27;3.00;;;1.27;;
75793;SDS011;64418;47.536;19.074;2023-09-19T14:52:53;3.93;;;1.47;;
75793;SDS011;64418;47.536;19.074;2023-09-19T14:55:21;2.75;;;1.30;;
75793;SDS011;64418;47.536;19.074;2023-09-19T14:57:48;6.32;;;1.30;;